Time;durP1;ratioP1;P1;durP2;ratioP2;P2;SDS_P1;SDS_P2;PMS_P1;PMS_P2;Temp;Humidity;BMP_temperature;BMP_pressure;BME280_temperature;BME280_humidity;BME280_pressure;Samples;Min_cycle;Max_cycle;Signal;HPM_P1;HPM_P2
2022/12/09 00:00:14;;;;;;;19.27;8.50;;;;;;;-0.45;100.00;100268.69;5097470;28;20539;-70
2022/12/09 00:02:41;;;;;;;21.57;9.43;;;;;;;-0.43;100.00;100265.81;5093693;28;20456;-70
2022/12/09 00:05:08;;;;;;;23.03;9.30;;;;;;;-0.41;100.00;100267.19;5076295;28;20492;-69
2022/12/09 00:07:35;;;;;;;17.83;7.90;;;;;;;-0.47;100.00;100267.34;5076825;28;20471;-70
2022/12/09 00:10:03;;;;;;;18.60;8.43;;;;;;;-0.60;100.00;100266.56;5076269;28;20445;-70
2022/12/09 00:12:30;;;;;;;20.90;8.57;;;;;;;-0.82;100.00;100266.38;5079792;28;20456;-69
2022/12/09 00:14:57;;;;;;;17.83;7.57;;;;;;;-0.87;100.00;100268.91;5076435;28;20468;-69
2022/12/09 00:17:23;;;;;;;21.67;9.60;;;;;;;-0.78;100.00;100262.19;5079194;28;20460;-69
2022/12/09 00:19:50;;;;;;;16.47;7.77;;;;;;;-0.73;100.00;100264.16;5096099;28;20516;-69
2022/12/09 00:22:16;;;;;;;23.27;8.83;;;;;;;-0.67;100.00;100267.72;5094273;28;20460;-69
2022/12/09 00:24:43;;;;;;;16.33;8.50;;;;;;;-0.77;100.00;100263.81;5094618;28;20524;-69
2022/12/09 00:27:11;;;;;;;16.87;8.77;;;;;;;-0.80;100.00;100266.13;5094214;28;20916;-70
2022/12/09 00:29:37;;;;;;;14.40;7.07;;;;;;;-0.84;100.00;100263.16;5093385;28;20541;-69
2022/12/09 00:32:04;;;;;;;17.37;8.90;;;;;;;-0.85;100.00;100261.50;5086793;28;20549;-68
2022/12/09 00:34:31;;;;;;;19.50;9.10;;;;;;;-0.97;100.00;100260.72;5075028;28;20449;-70
2022/12/09 00:36:57;;;;;;;14.83;6.73;;;;;;;-0.88;100.00;100264.66;5080999;28;20559;-69
2022/12/09 00:39:24;;;;;;;18.10;7.13;;;;;;;-0.95;100.00;100269.28;5086536;28;20476;-70
2022/12/09 00:41:51;;;;;;;18.83;7.17;;;;;;;-1.01;100.00;100270.22;5074436;28;20468;-70
2022/12/09 00:44:19;;;;;;;17.90;8.40;;;;;;;-1.06;100.00;100272.75;5078875;28;20458;-69
2022/12/09 00:46:46;;;;;;;17.63;7.87;;;;;;;-0.99;100.00;100278.75;5093462;28;20471;-71
2022/12/09 00:49:12;;;;;;;21.97;7.60;;;;;;;-1.11;100.00;100281.41;5091719;28;20953;-70
2022/12/09 00:51:39;;;;;;;15.47;8.10;;;;;;;-1.15;100.00;100284.75;5094459;28;20561;-70
2022/12/09 00:54:06;;;;;;;14.87;7.43;;;;;;;-1.08;100.00;100283.59;5094081;28;20948;-70
2022/12/09 00:56:32;;;;;;;20.17;8.97;;;;;;;-1.04;100.00;100291.94;5117007;22;20557;-68
2022/12/09 00:58:59;;;;;;;18.93;7.77;;;;;;;-1.02;100.00;100295.16;5093368;28;20490;-68
2022/12/09 01:01:28;;;;;;;16.17;7.67;;;;;;;-1.05;100.00;100295.63;5089906;28;20999;-67
2022/12/09 01:03:55;;;;;;;19.40;9.20;;;;;;;-1.03;100.00;100290.88;5094104;28;20440;-67
2022/12/09 01:06:24;;;;;;;17.40;8.20;;;;;;;-0.96;100.00;100299.56;5082060;28;20491;-67
2022/12/09 01:08:51;;;;;;;18.60;8.50;;;;;;;-1.04;100.00;100294.59;5073763;28;20448;-67
2022/12/09 01:11:20;;;;;;;24.40;8.47;;;;;;;-1.05;100.00;100298.28;5072751;28;20602;-68
2022/12/09 01:13:47;;;;;;;22.50;9.40;;;;;;;-0.91;100.00;100291.69;5073357;28;20457;-67
2022/12/09 01:16:16;;;;;;;19.87;7.80;;;;;;;-0.89;100.00;100292.25;5072513;28;21044;-66
2022/12/09 01:18:45;;;;;;;16.57;7.93;;;;;;;-0.88;100.00;100288.56;5073778;28;20520;-67
2022/12/09 01:21:12;;;;;;;15.23;7.40;;;;;;;-0.80;100.00;100298.03;5072881;28;20457;-67
2022/12/09 01:23:39;;;;;;;18.30;8.50;;;;;;;-0.83;100.00;100293.19;5072711;28;20468;-67
2022/12/09 01:26:07;;;;;;;18.37;9.43;;;;;;;-0.73;100.00;100295.25;5073331;28;20842;-67
2022/12/09 01:28:36;;;;;;;21.20;8.07;;;;;;;-0.80;100.00;100304.19;5072728;28;20518;-67
2022/12/09 01:31:07;;;;;;;18.07;7.53;;;;;;;-0.78;100.00;100290.63;5073635;28;20442;-67
2022/12/09 01:33:33;;;;;;;20.57;9.03;;;;;;;-0.67;100.00;100289.81;5072562;28;20831;-67
2022/12/09 01:36:05;;;;;;;18.03;7.33;;;;;;;-0.54;100.00;100288.72;5073495;28;20823;-67
2022/12/09 01:38:31;;;;;;;18.13;8.23;;;;;;;-0.53;100.00;100287.72;5072737;28;20866;-67
2022/12/09 01:40:58;;;;;;;16.70;8.00;;;;;;;-0.49;100.00;100278.19;5073666;28;20449;-68
2022/12/09 01:43:25;;;;;;;15.37;7.70;;;;;;;-0.44;100.00;100280.97;5071488;28;20553;-70
2022/12/09 01:45:52;;;;;;;16.67;8.77;;;;;;;-0.31;100.00;100280.72;5073254;28;20970;-71
2022/12/09 01:48:21;;;;;;;18.77;7.90;;;;;;;-0.42;100.00;100288.72;5071761;28;20468;-69
2022/12/09 01:50:52;;;;;;;19.83;9.00;;;;;;;-0.41;100.00;100283.16;5072244;28;20997;-70
2022/12/09 01:53:24;;;;;;;15.80;7.80;;;;;;;-0.34;100.00;100285.69;5072520;28;20492;-68
2022/12/09 01:55:50;;;;;;;15.40;6.00;;;;;;;-0.44;100.00;100280.97;5073106;28;20493;-67
2022/12/09 01:58:18;;;;;;;20.30;8.97;;;;;;;-0.29;100.00;100283.94;5070299;28;20485;-66
2022/12/09 02:00:46;;;;;;;18.80;8.47;;;;;;;-0.17;100.00;100283.91;5072430;28;20484;-67
2022/12/09 02:03:13;;;;;;;15.37;7.37;;;;;;;-0.12;100.00;100293.84;5072018;28;20493;-68
2022/12/09 02:05:39;;;;;;;20.83;8.33;;;;;;;-0.28;100.00;100295.38;5070668;28;20508;-67
2022/12/09 02:08:10;;;;;;;18.50;9.63;;;;;;;-0.43;100.00;100287.91;5070754;28;20468;-67
2022/12/09 02:10:47;;;;;;;18.63;8.33;;;;;;;-0.37;100.00;100286.16;5073260;28;20453;-66
2022/12/09 02:13:23;;;;;;;16.40;7.83;;;;;;;-0.39;100.00;100283.75;5071423;28;20548;-67
2022/12/09 02:15:53;;;;;;;14.40;6.97;;;;;;;-0.39;100.00;100283.75;5073107;28;20490;-67
2022/12/09 02:18:26;;;;;;;18.90;8.53;;;;;;;-0.23;100.00;100284.03;5071709;28;20488;-67
2022/12/09 02:20:59;;;;;;;15.40;7.40;;;;;;;-0.15;100.00;100289.78;5072034;28;20476;-67
2022/12/09 02:23:31;;;;;;;16.17;7.40;;;;;;;-0.09;100.00;100298.66;5072976;28;20461;-67
2022/12/09 02:26:07;;;;;;;16.40;6.40;;;;;;;-0.15;100.00;100292.44;5071733;28;21021;-67
2022/12/09 02:29:21;;;;;;;16.60;7.53;;;;;;;0.00;100.00;100291.94;5071966;28;20479;-67
2022/12/09 02:32:13;;;;;;;21.93;9.10;;;;;;;0.04;100.00;100285.06;5045773;28;20809;-67
2022/12/09 02:34:46;;;;;;;20.10;8.33;;;;;;;-0.03;100.00;100287.06;5071357;28;20453;-67
2022/12/09 02:37:19;;;;;;;16.17;8.10;;;;;;;-0.11;100.00;100285.59;5072707;28;20543;-68
2022/12/09 02:39:52;;;;;;;18.70;8.13;;;;;;;-0.11;100.00;100274.16;5071772;28;20469;-67
2022/12/09 02:42:22;;;;;;;21.30;9.10;;;;;;;-0.13;100.00;100271.72;5072467;28;20430;-66
2022/12/09 02:44:50;;;;;;;22.27;7.37;;;;;;;-0.12;100.00;100284.00;5071410;28;20518;-67
2022/12/09 02:47:21;;;;;;;21.47;7.80;;;;;;;-0.18;100.00;100282.25;5072715;28;20567;-67
2022/12/09 02:49:52;;;;;;;21.20;8.17;;;;;;;-0.18;100.00;100278.78;5071049;28;20484;-67
2022/12/09 02:52:20;;;;;;;22.30;9.07;;;;;;;-0.28;100.00;100274.91;5071889;28;20461;-67
2022/12/09 02:54:48;;;;;;;16.10;7.33;;;;;;;-0.30;100.00;100271.69;5072620;28;20472;-68
2022/12/09 02:57:17;;;;;;;15.60;7.67;;;;;;;-0.24;100.00;100274.44;5071503;28;20512;-67
2022/12/09 02:59:44;;;;;;;15.57;7.37;;;;;;;-0.13;100.00;100271.72;5069686;28;20576;-68
2022/12/09 03:02:18;;;;;;;19.20;8.63;;;;;;;-0.05;100.00;100273.19;5072207;28;20445;-66
2022/12/09 03:04:53;;;;;;;15.47;7.87;;;;;;;0.01;100.00;100274.91;5071868;28;20461;-68
2022/12/09 03:07:28;;;;;;;19.77;8.03;;;;;;;-0.10;100.00;100273.09;5072669;28;20460;-67
2022/12/09 03:10:03;;;;;;;19.03;8.00;;;;;;;-0.18;100.00;100268.94;5071060;28;20455;-67
2022/12/09 03:12:32;;;;;;;14.00;6.60;;;;;;;-0.16;100.00;100269.53;5071946;28;20484;-67
2022/12/09 03:15:02;;;;;;;16.73;8.17;;;;;;;-0.20;100.00;100270.25;5076183;28;20472;-68
2022/12/09 03:17:32;;;;;;;16.60;7.30;;;;;;;-0.20;100.00;100270.25;5071411;28;20461;-68
2022/12/09 03:20:05;;;;;;;18.90;7.53;;;;;;;-0.08;100.00;100273.69;5073824;28;20481;-68
2022/12/09 03:22:34;;;;;;;19.67;7.93;;;;;;;-0.08;100.00;100282.47;5076066;28;20520;-67
2022/12/09 03:25:05;;;;;;;16.73;6.17;;;;;;;-0.17;100.00;100275.91;5075174;28;20469;-67
2022/12/09 03:27:38;;;;;;;19.50;8.10;;;;;;;-0.19;100.00;100272.66;5075989;28;20430;-67
2022/12/09 03:30:06;;;;;;;15.13;7.97;;;;;;;-0.20;100.00;100271.06;5074161;28;20819;-67
2022/12/09 03:32:33;;;;;;;14.37;7.00;;;;;;;-0.18;100.00;100270.81;5075548;28;21011;-68
2022/12/09 03:35:07;;;;;;;15.90;7.43;;;;;;;-0.18;100.00;100270.81;5074646;28;20463;-68
2022/12/09 03:37:36;;;;;;;15.70;6.73;;;;;;;-0.22;100.00;100273.16;5075028;28;20484;-67
2022/12/09 03:40:04;;;;;;;20.33;7.13;;;;;;;-0.27;100.00;100275.69;5074338;28;20482;-68
2022/12/09 03:42:39;;;;;;;16.20;7.67;;;;;;;-0.30;100.00;100270.88;5075762;28;20469;-69
2022/12/09 03:45:10;;;;;;;21.43;7.57;;;;;;;-0.25;100.00;100278.94;5074787;28;20845;-67
2022/12/09 03:47:37;;;;;;;16.00;7.10;;;;;;;-0.24;100.00;100274.44;5075342;28;20421;-67
2022/12/09 03:50:08;;;;;;;17.63;7.07;;;;;;;-0.18;100.00;100274.28;5073476;28;20463;-67
2022/12/09 03:52:39;;;;;;;18.17;8.13;;;;;;;-0.30;100.00;100271.69;5075449;28;20433;-67
2022/12/09 03:55:10;;;;;;;13.40;5.83;;;;;;;-0.31;100.00;100275.38;5074602;28;20485;-67
2022/12/09 03:57:41;;;;;;;19.77;8.00;;;;;;;-0.18;100.00;100276.13;5074398;28;20796;-67
2022/12/09 04:00:08;;;;;;;19.20;7.30;;;;;;;-0.15;100.00;100273.00;5072567;28;20564;-67
2022/12/09 04:02:35;;;;;;;21.57;7.93;;;;;;;-0.12;100.00;100269.88;5074407;28;20446;-67
2022/12/09 04:05:02;;;;;;;19.93;7.87;;;;;;;-0.11;100.00;100261.66;5073100;28;21049;-68
2022/12/09 04:07:30;;;;;;;21.53;7.77;;;;;;;-0.13;100.00;100266.41;5074265;28;20472;-67
2022/12/09 04:09:56;;;;;;;16.43;6.87;;;;;;;-0.29;100.00;100262.66;5071749;28;20454;-68
2022/12/09 04:12:23;;;;;;;16.20;7.87;;;;;;;-0.28;100.00;100274.91;5071592;28;20532;-67
2022/12/09 04:14:49;;;;;;;18.43;6.80;;;;;;;-0.31;100.00;100275.38;5073439;28;20457;-67
2022/12/09 04:17:16;;;;;;;16.37;7.90;;;;;;;-0.18;100.00;100260.16;5073959;28;20500;-67
2022/12/09 04:19:42;;;;;;;16.67;7.13;;;;;;;-0.34;100.00;100259.88;5073020;28;20485;-67
2022/12/09 04:22:09;;;;;;;22.67;8.37;;;;;;;-0.38;100.00;100263.25;5071836;28;20489;-68
2022/12/09 04:24:37;;;;;;;15.70;7.00;;;;;;;-0.40;100.00;100260.84;5072939;28;20469;-67
2022/12/09 04:27:04;;;;;;;19.77;7.37;;;;;;;-0.41;100.00;100256.53;5072661;28;20997;-67
2022/12/09 04:29:30;;;;;;;17.53;7.10;;;;;;;-0.47;100.00;100256.69;5073891;28;20511;-67
2022/12/09 04:31:57;;;;;;;19.23;8.80;;;;;;;-0.45;100.00;100258.06;5071968;28;20457;-68
2022/12/09 04:34:23;;;;;;;19.80;7.07;;;;;;;-0.34;100.00;100259.88;5073648;28;20438;-67
2022/12/09 04:36:50;;;;;;;18.83;8.07;;;;;;;-0.30;100.00;100261.03;5073289;28;20469;-74
2022/12/09 04:39:18;;;;;;;18.10;9.00;;;;;;;-0.33;100.00;100263.34;5072678;28;20843;-68
2022/12/09 04:41:46;;;;;;;20.90;7.80;;;;;;;-0.18;100.00;100254.84;5071542;28;20556;-69
2022/12/09 04:44:12;;;;;;;16.70;7.70;;;;;;;-0.14;100.00;100266.63;5073665;28;20524;-68
2022/12/09 04:46:39;;;;;;;16.30;7.90;;;;;;;-0.18;100.00;100257.50;5072650;28;20477;-68
2022/12/09 04:49:05;;;;;;;20.53;7.27;;;;;;;-0.18;100.00;100271.63;5073661;28;20532;-68
2022/12/09 04:51:32;;;;;;;16.13;7.53;;;;;;;-0.18;100.00;100278.78;5072554;28;20466;-69
2022/12/09 04:53:59;;;;;;;20.03;8.10;;;;;;;-0.17;100.00;100273.25;5073351;28;20511;-68
2022/12/09 04:56:25;;;;;;;14.07;6.97;;;;;;;-0.17;100.00;100275.91;5033055;28;1129305;-68
2022/12/09 04:58:53;;;;;;;20.23;7.07;;;;;;;-0.35;100.00;100274.25;5074288;28;20234;-68
2022/12/09 05:01:22;;;;;;;13.33;6.80;;;;;;;-0.45;100.00;100276.69;5073059;28;21035;-69
2022/12/09 05:03:49;;;;;;;19.70;7.00;;;;;;;-0.39;100.00;100277.63;5072039;28;20556;-68
2022/12/09 05:06:16;;;;;;;16.67;6.60;;;;;;;-0.21;100.00;100280.09;5073233;28;20472;-68
2022/12/09 05:08:44;;;;;;;15.80;7.40;;;;;;;-0.21;100.00;100271.31;5073208;28;20471;-68
2022/12/09 05:11:10;;;;;;;14.87;6.47;;;;;;;-0.28;100.00;100277.56;5073986;28;20442;-68
2022/12/09 05:13:37;;;;;;;22.13;7.93;;;;;;;-0.28;100.00;100277.56;5072262;28;20457;-68
2022/12/09 05:16:07;;;;;;;21.97;7.53;;;;;;;-0.28;100.00;100271.44;5073588;28;20461;-68
2022/12/09 05:18:34;;;;;;;14.80;6.70;;;;;;;-0.30;100.00;100269.00;5072836;28;20978;-68
2022/12/09 05:21:04;;;;;;;18.53;8.20;;;;;;;-0.21;100.00;100273.97;5073735;28;20521;-69
2022/12/09 05:23:31;;;;;;;18.37;7.07;;;;;;;-0.13;100.00;100276.25;5072550;28;20976;-69
2022/12/09 05:25:58;;;;;;;18.77;7.50;;;;;;;-0.22;100.00;100267.00;5073687;28;20469;-69
2022/12/09 05:28:24;;;;;;;22.33;8.13;;;;;;;-0.17;100.00;100265.25;5072870;28;20548;-69
2022/12/09 05:30:51;;;;;;;16.60;8.00;;;;;;;-0.20;100.00;100270.25;5073486;28;20524;-68
2022/12/09 05:33:19;;;;;;;20.43;8.53;;;;;;;-0.25;100.00;100268.31;5071798;28;20461;-68
2022/12/09 05:35:45;;;;;;;14.30;6.40;;;;;;;-0.16;100.00;100266.06;5072891;28;20461;-70
2022/12/09 05:38:12;;;;;;;17.33;7.30;;;;;;;-0.20;100.00;100272.91;5072456;28;20559;-68
2022/12/09 05:40:38;;;;;;;21.47;8.33;;;;;;;-0.24;100.00;100274.44;5073112;28;20597;-70
2022/12/09 05:43:05;;;;;;;15.67;7.00;;;;;;;-0.22;100.00;100277.66;5071510;28;20496;-69
2022/12/09 05:45:32;;;;;;;15.63;7.70;;;;;;;-0.16;100.00;100279.38;5072790;28;20986;-69
2022/12/09 05:47:58;;;;;;;15.93;7.20;;;;;;;-0.09;100.00;100277.38;5071068;28;20919;-68
2022/12/09 05:50:26;;;;;;;16.33;7.37;;;;;;;0.02;100.00;100281.03;5073089;28;20491;-68
2022/12/09 05:52:53;;;;;;;17.70;8.80;;;;;;;0.06;100.00;100284.84;5072398;28;20605;-68
2022/12/09 05:55:19;;;;;;;16.87;6.70;;;;;;;0.15;100.00;100278.88;5073163;28;20452;-69
2022/12/09 05:57:46;;;;;;;21.83;7.37;;;;;;;0.20;100.00;100278.97;5071206;28;20446;-68
2022/12/09 06:00:13;;;;;;;18.67;7.80;;;;;;;0.11;100.00;100272.41;5071861;28;20509;-70
2022/12/09 06:02:40;;;;;;;16.97;8.13;;;;;;;0.04;100.00;100281.59;5069002;28;20549;-68
2022/12/09 06:05:08;;;;;;;16.37;8.93;;;;;;;0.04;100.00;100279.72;5071558;28;20850;-68
2022/12/09 06:07:36;;;;;;;22.43;10.97;;;;;;;0.08;100.00;100278.22;5072721;28;20444;-68
2022/12/09 06:10:03;;;;;;;20.73;8.80;;;;;;;0.09;100.00;100282.50;5070179;28;21009;-68
2022/12/09 06:12:30;;;;;;;19.10;9.17;;;;;;;0.03;100.00;100275.47;5072237;28;20548;-68
2022/12/09 06:14:56;;;;;;;16.20;8.63;;;;;;;0.00;100.00;100281.28;5071141;28;20549;-67
2022/12/09 06:17:23;;;;;;;15.90;7.47;;;;;;;-0.05;100.00;100270.53;5072190;28;20477;-68
2022/12/09 06:19:49;;;;;;;19.53;8.87;;;;;;;0.03;100.00;100274.66;5072726;28;20437;-68
2022/12/09 06:22:16;;;;;;;21.93;9.47;;;;;;;0.02;100.00;100276.53;5071901;28;20850;-67
2022/12/09 06:24:44;;;;;;;27.03;9.50;;;;;;;0.00;100.00;100275.97;5071206;28;20463;-68
2022/12/09 06:27:10;;;;;;;23.67;10.60;;;;;;;0.09;100.00;100277.19;5072166;28;20487;-67
2022/12/09 06:29:37;;;;;;;25.73;10.13;;;;;;;0.16;100.00;100277.81;5071155;28;20461;-68
2022/12/09 06:32:04;;;;;;;24.63;12.27;;;;;;;0.13;100.00;100285.47;5072915;28;20524;-67
2022/12/09 06:34:31;;;;;;;28.97;12.77;;;;;;;0.24;100.00;100287.28;5071097;28;20457;-69
2022/12/09 06:36:57;;;;;;;33.43;13.80;;;;;;;0.26;100.00;100285.19;5072477;28;21025;-68
2022/12/09 06:39:24;;;;;;;24.23;11.70;;;;;;;0.23;100.00;100283.81;5071979;28;20461;-68
2022/12/09 06:41:52;;;;;;;23.03;12.17;;;;;;;0.22;100.00;100289.38;5072864;28;20491;-68
2022/12/09 06:44:18;;;;;;;26.60;13.53;;;;;;;0.14;100.00;100287.94;5072089;28;20512;-68
2022/12/09 06:46:45;;;;;;;26.50;12.10;;;;;;;0.23;100.00;100291.00;5072740;28;20508;-68
2022/12/09 06:49:11;;;;;;;27.53;11.50;;;;;;;0.29;100.00;100299.88;5074349;28;20497;-68
2022/12/09 06:51:38;;;;;;;23.43;11.17;;;;;;;0.31;100.00;100287.97;5076699;28;20443;-69
2022/12/09 06:54:05;;;;;;;25.40;12.03;;;;;;;0.35;100.00;100289.06;5072103;28;20594;-68
2022/12/09 06:56:35;;;;;;;34.40;12.70;;;;;;;0.46;100.00;100296.19;5076752;28;21017;-67
2022/12/09 06:59:07;;;;;;;33.87;13.57;;;;;;;0.42;100.00;100303.03;5075684;28;20485;-68
2022/12/09 07:01:34;;;;;;;38.83;12.33;;;;;;;0.40;100.00;100305.16;5076499;28;20879;-69
2022/12/09 07:04:02;;;;;;;35.97;12.70;;;;;;;0.45;100.00;100310.56;5075530;28;20457;-69
2022/12/09 07:06:31;;;;;;;33.57;14.37;;;;;;;0.50;100.00;100307.97;5074371;28;20855;-69
2022/12/09 07:09:00;;;;;;;28.27;13.10;;;;;;;0.45;100.00;100304.44;5076373;28;20540;-69
2022/12/09 07:11:26;;;;;;;38.43;13.60;;;;;;;0.44;100.00;100305.47;5075384;28;20596;-69
2022/12/09 07:13:53;;;;;;;26.97;11.77;;;;;;;0.53;100.00;100309.34;5076305;28;20469;-72
2022/12/09 07:16:21;;;;;;;27.97;10.00;;;;;;;0.58;100.00;100308.66;5064387;28;20557;-69
2022/12/09 07:18:48;;;;;;;30.63;11.67;;;;;;;0.66;100.00;100301.03;5056138;28;20449;-68
2022/12/09 07:21:17;;;;;;;26.10;8.60;;;;;;;0.80;100.00;100303.38;5065102;28;20492;-66
2022/12/09 07:23:44;;;;;;;32.43;12.57;;;;;;;0.83;100.00;100301.03;5073941;28;20489;-70
2022/12/09 07:26:11;;;;;;;31.70;10.53;;;;;;;0.73;100.00;100299.03;5074017;28;21024;-69
2022/12/09 07:28:41;;;;;;;27.00;10.73;;;;;;;0.79;100.00;100299.09;5075588;28;20477;-68
2022/12/09 07:31:15;;;;;;;27.20;10.23;;;;;;;0.83;100.00;100311.69;5074692;28;21043;-69
2022/12/09 07:33:43;;;;;;;25.57;9.47;;;;;;;0.94;100.00;100312.66;5075996;28;20424;-69
2022/12/09 07:36:10;;;;;;;22.70;9.10;;;;;;;0.97;100.00;100307.66;5074465;28;20580;-68
2022/12/09 07:38:36;;;;;;;33.37;10.53;;;;;;;0.97;100.00;100304.16;5075832;28;20448;-68
2022/12/09 07:41:05;;;;;;;23.70;8.40;;;;;;;1.01;100.00;100314.09;5074808;28;20495;-69
2022/12/09 07:43:33;;;;;;;18.90;6.00;;;;;;;1.04;100.00;100304.81;5074798;28;20449;-69
2022/12/09 07:45:59;;;;;;;25.47;9.53;;;;;;;1.07;100.00;100309.66;5075058;28;20484;-69
2022/12/09 07:48:26;;;;;;;21.23;9.00;;;;;;;1.00;100.00;100314.34;5075242;28;20480;-71
2022/12/09 07:50:54;;;;;;;25.80;8.47;;;;;;;1.03;100.00;100316.53;5074213;28;20941;-76
2022/12/09 07:53:21;;;;;;;24.37;8.90;;;;;;;1.10;100.00;100319.81;5074717;28;20468;-72
2022/12/09 07:55:47;;;;;;;32.03;11.20;;;;;;;1.17;100.00;100317.00;5075302;28;20502;-69
2022/12/09 07:58:14;;;;;;;31.70;9.07;;;;;;;1.11;100.00;100312.66;5074593;28;20485;-68
2022/12/09 08:00:40;;;;;;;20.37;8.60;;;;;;;1.08;100.00;100313.13;5072381;28;20516;-69
2022/12/09 08:03:07;;;;;;;27.07;9.00;;;;;;;1.00;100.00;100317.00;5075282;28;20449;-68
2022/12/09 08:05:33;;;;;;;28.17;9.13;;;;;;;1.04;100.00;100315.47;5073653;28;20476;-68
2022/12/09 08:08:01;;;;;;;21.10;8.90;;;;;;;1.04;100.00;100317.34;5073599;28;20463;-68
2022/12/09 08:10:28;;;;;;;22.97;8.07;;;;;;;1.07;100.00;100325.66;5074063;28;20912;-68
2022/12/09 08:12:54;;;;;;;17.37;7.80;;;;;;;1.08;100.00;100329.94;5072666;28;20457;-69
2022/12/09 08:15:21;;;;;;;21.80;8.90;;;;;;;1.02;100.00;100325.59;5074408;28;20544;-68
2022/12/09 08:17:47;;;;;;;21.73;9.43;;;;;;;1.01;100.00;100323.97;5074960;28;20532;-68
2022/12/09 08:20:14;;;;;;;24.17;10.67;;;;;;;0.99;100.00;100321.53;5073936;28;20899;-68
2022/12/09 08:22:41;;;;;;;23.80;9.67;;;;;;;0.97;100.00;100325.50;5074226;28;20465;-69
2022/12/09 08:25:09;;;;;;;27.53;8.20;;;;;;;0.96;100.00;100326.56;5073084;28;20461;-69
2022/12/09 08:27:36;;;;;;;20.90;8.77;;;;;;;1.01;100.00;100322.09;5074111;28;20540;-68
2022/12/09 08:30:03;;;;;;;28.70;10.67;;;;;;;1.03;100.00;100327.19;5074743;28;20955;-69
2022/12/09 08:32:30;;;;;;;20.10;8.07;;;;;;;1.10;100.00;100321.69;5074418;28;20460;-70
2022/12/09 08:34:57;;;;;;;21.30;9.53;;;;;;;1.06;100.00;100326.69;5071923;28;20954;-73
2022/12/09 08:37:23;;;;;;;22.00;8.80;;;;;;;1.12;100.00;100315.06;5074231;28;20507;-70
2022/12/09 08:39:50;;;;;;;22.67;8.40;;;;;;;1.24;100.00;100313.13;5073093;28;20457;-71
2022/12/09 08:42:18;;;;;;;19.40;8.33;;;;;;;1.26;100.00;100312.84;5074438;28;20573;-69
2022/12/09 08:44:44;;;;;;;21.63;7.50;;;;;;;1.25;100.00;100319.25;5072306;28;20493;-68
2022/12/09 08:47:11;;;;;;;21.90;8.80;;;;;;;1.21;100.00;100336.81;5072231;28;20485;-68
2022/12/09 08:49:37;;;;;;;20.30;7.30;;;;;;;1.21;100.00;100334.94;5073504;28;20548;-71
2022/12/09 08:52:04;;;;;;;24.43;10.47;;;;;;;1.15;100.00;100338.59;5072929;28;20528;-69
2022/12/09 08:54:31;;;;;;;22.40;8.50;;;;;;;1.23;100.00;100327.47;5074116;28;20957;-69
2022/12/09 08:56:58;;;;;;;25.17;8.53;;;;;;;1.31;100.00;100328.94;5073102;28;20517;-70
2022/12/09 08:59:26;;;;;;;31.50;9.67;;;;;;;1.29;100.00;100335.59;5074290;28;20484;-69
2022/12/09 09:01:53;;;;;;;22.20;9.03;;;;;;;1.29;100.00;100330.25;5073691;28;20485;-71
2022/12/09 09:04:21;;;;;;;28.37;9.87;;;;;;;1.30;100.00;100339.84;5074235;28;20441;-69
2022/12/09 09:06:49;;;;;;;26.23;9.60;;;;;;;1.31;100.00;100336.13;5072978;28;20896;-69
2022/12/09 09:09:16;;;;;;;24.63;9.37;;;;;;;1.39;100.00;100335.72;5073274;28;20540;-69
2022/12/09 09:11:43;;;;;;;27.27;12.03;;;;;;;1.33;100.00;100334.00;5073704;28;20433;-69
2022/12/09 09:14:12;;;;;;;20.67;8.50;;;;;;;1.39;100.00;100327.72;5072839;28;20834;-69
2022/12/09 09:16:42;;;;;;;22.67;9.40;;;;;;;1.49;100.00;100333.97;5072386;28;21023;-70
2022/12/09 09:19:14;;;;;;;31.70;9.80;;;;;;;1.50;100.00;100338.25;5072940;28;20488;-70
2022/12/09 09:21:41;;;;;;;21.37;9.40;;;;;;;1.53;100.00;100347.63;5072880;28;20466;-71
2022/12/09 09:24:10;;;;;;;23.03;8.83;;;;;;;1.53;100.00;100342.28;5072950;28;20962;-69
2022/12/09 09:26:39;;;;;;;23.07;9.37;;;;;;;1.64;100.00;100336.06;5073617;28;20461;-70
2022/12/09 09:29:06;;;;;;;21.03;9.00;;;;;;;1.60;100.00;100336.78;5070659;28;20556;-69
2022/12/09 09:31:33;;;;;;;30.60;10.80;;;;;;;1.62;100.00;100340.81;5072820;28;20461;-70
2022/12/09 09:34:00;;;;;;;30.80;10.00;;;;;;;1.64;100.00;100338.72;5072182;28;20954;-71
2022/12/09 09:36:27;;;;;;;23.27;9.43;;;;;;;1.68;100.00;100344.34;5073575;28;20540;-69
2022/12/09 09:38:56;;;;;;;22.83;9.20;;;;;;;1.73;100.00;100337.22;5072674;28;20489;-70
2022/12/09 09:41:41;;;;;;;36.07;10.83;;;;;;;1.69;100.00;100337.97;5072561;28;20481;-69
2022/12/09 09:44:17;;;;;;;22.67;10.80;;;;;;;1.73;100.00;100333.75;5071029;28;20953;-70
2022/12/09 09:46:45;;;;;;;23.97;9.67;;;;;;;1.72;100.00;100332.13;5073491;28;20489;-69
2022/12/09 09:49:19;;;;;;;25.63;9.23;;;;;;;1.73;100.00;100337.22;5072031;28;20986;-70
2022/12/09 09:51:46;;;;;;;29.33;10.00;;;;;;;1.67;100.00;100334.72;5072582;28;20553;-69
2022/12/09 09:54:15;;;;;;;29.23;11.63;;;;;;;1.69;100.00;100330.78;5072225;28;20464;-70
2022/12/09 09:56:50;;;;;;;33.20;12.77;;;;;;;1.73;100.00;100337.22;5072972;28;20473;-68
2022/12/09 09:59:25;;;;;;;32.33;10.57;;;;;;;1.76;100.00;100336.72;5071507;28;20452;-69
2022/12/09 10:02:01;;;;;;;37.70;11.20;;;;;;;1.81;100.00;100337.84;5071856;28;20635;-70
2022/12/09 10:04:37;;;;;;;34.53;10.23;;;;;;;1.94;100.00;100342.78;5072555;28;20894;-67
2022/12/09 10:07:13;;;;;;;30.90;11.40;;;;;;;2.01;100.00;100328.19;5073177;28;20457;-71
2022/12/09 10:09:48;;;;;;;29.37;12.03;;;;;;;2.04;100.00;100326.91;5072349;28;20457;-69
2022/12/09 10:12:21;;;;;;;30.97;10.37;;;;;;;2.09;100.00;100323.47;5072260;28;20531;-71
2022/12/09 10:15:00;;;;;;;28.57;10.47;;;;;;;2.11;100.00;100321.34;5071307;28;20906;-70
2022/12/09 10:17:29;;;;;;;30.93;9.30;;;;;;;2.03;100.00;100323.41;5059584;28;20507;-70
2022/12/09 10:20:04;;;;;;;29.60;11.40;;;;;;;1.98;100.00;100317.19;5073014;28;20997;-71
2022/12/09 10:22:40;;;;;;;27.63;10.17;;;;;;;1.99;100.00;100318.81;5071551;28;20469;-69
2022/12/09 10:25:18;;;;;;;24.57;10.37;;;;;;;1.99;100.00;100324.97;5072821;28;20934;-71
2022/12/09 10:27:50;;;;;;;35.57;12.10;;;;;;;1.94;100.00;100326.78;5071788;28;20928;-70
2022/12/09 10:30:18;;;;;;;32.27;12.27;;;;;;;1.96;100.00;100316.66;5072073;28;20556;-69
2022/12/09 10:32:45;;;;;;;23.80;8.80;;;;;;;1.92;100.00;100311.00;5071600;28;21017;-69
2022/12/09 10:35:19;;;;;;;28.00;10.17;;;;;;;2.04;100.00;100316.22;5070095;28;20484;-70
2022/12/09 10:37:47;;;;;;;22.77;9.30;;;;;;;2.02;100.00;100310.31;5053087;28;20450;-69
2022/12/09 10:40:21;;;;;;;27.23;10.57;;;;;;;2.08;100.00;100303.13;5069310;28;20544;-70
2022/12/09 10:45:34;;;;;;;31.67;10.27;;;;;;;1.98;100.00;100310.00;5071765;28;20897;-70
2022/12/09 10:48:01;;;;;;;23.87;7.47;;;;;;;1.96;100.00;100308.66;5072829;28;20461;-71
2022/12/09 10:50:35;;;;;;;33.47;10.43;;;;;;;2.01;100.00;100306.03;5071512;28;20552;-69
2022/12/09 10:53:06;;;;;;;25.83;10.77;;;;;;;1.95;100.00;100301.69;5071150;28;20477;-69
2022/12/09 10:55:38;;;;;;;24.20;10.23;;;;;;;1.99;100.00;100303.63;5072564;28;20512;-70
2022/12/09 10:58:20;;;;;;;38.13;13.57;;;;;;;1.97;100.00;100303.03;5072011;28;20889;-69
2022/12/09 11:01:06;;;;;;;38.77;11.40;;;;;;;2.02;100.00;100296.94;5072807;28;20429;-70
2022/12/09 11:03:35;;;;;;;28.90;9.57;;;;;;;2.09;100.00;100300.25;5071902;28;20457;-70
2022/12/09 11:06:22;;;;;;;35.23;12.57;;;;;;;2.00;100.00;100293.72;5070664;28;20485;-71
2022/12/09 11:08:55;;;;;;;28.83;11.30;;;;;;;2.11;100.00;100295.44;5070606;28;20807;-70
2022/12/09 11:11:39;;;;;;;35.60;12.53;;;;;;;2.13;100.00;100298.69;5071469;28;20545;-70
2022/12/09 11:14:21;;;;;;;27.37;10.00;;;;;;;2.16;100.00;100290.13;5071403;28;20540;-67
2022/12/09 11:16:48;;;;;;;30.27;12.10;;;;;;;2.19;100.00;100295.00;5071592;28;20487;-71
2022/12/09 11:19:15;;;;;;;24.67;11.27;;;;;;;2.18;100.00;100293.38;5068463;28;20476;-72
2022/12/09 11:21:44;;;;;;;30.43;12.53;;;;;;;2.14;100.00;100294.13;5070919;28;20568;-72